Time;durP1;ratioP1;P1;durP2;ratioP2;P2;SDS_P1;SDS_P2;PMS_P1;PMS_P2;Temp;Humidity;BMP_temperature;BMP_pressure;BME280_temperature;BME280_humidity;BME280_pressure;Samples;Min_cycle;Max_cycle;Signal;HPM_P1;HPM_P2
2021/08/18 00:01:58;;;;;;;3.35;2.70;;;;;;;23.85;50.47;101443.31;5059473;28;20040;-81
2021/08/18 00:04:24;;;;;;;4.35;2.58;;;;;;;23.83;50.71;101440.84;5061306;28;20040;-81
2021/08/18 00:06:50;;;;;;;3.30;2.42;;;;;;;23.85;50.54;101452.09;5058184;28;20065;-81
2021/08/18 00:09:16;;;;;;;3.85;2.40;;;;;;;23.82;50.64;101447.16;5062894;28;20075;-81
2021/08/18 00:11:41;;;;;;;3.03;2.15;;;;;;;23.81;50.82;101437.56;5028457;28;20028;-81
2021/08/18 00:14:07;;;;;;;3.25;2.28;;;;;;;23.80;50.77;101441.22;5037335;28;20037;-81
2021/08/18 00:16:33;;;;;;;2.95;2.40;;;;;;;23.73;50.64;101435.84;5058709;28;20047;-81
2021/08/18 00:18:58;;;;;;;3.85;2.50;;;;;;;23.81;50.84;101445.53;5064934;28;20029;-81
2021/08/18 00:21:25;;;;;;;4.32;2.47;;;;;;;23.77;50.86;101441.63;5055949;28;20037;-81
2021/08/18 00:23:51;;;;;;;3.10;2.38;;;;;;;23.76;50.73;101426.66;5058778;28;20112;-81
2021/08/18 00:26:17;;;;;;;3.22;2.35;;;;;;;23.76;50.98;101429.34;5066517;28;20036;-81
2021/08/18 00:28:43;;;;;;;3.33;2.40;;;;;;;23.74;51.06;101437.50;5063067;28;20040;-81
2021/08/18 00:31:13;;;;;;;4.20;2.40;;;;;;;23.74;50.77;101440.16;5066842;28;20183;-81
2021/08/18 00:33:40;;;;;;;3.22;2.55;;;;;;;23.50;50.76;101404.09;5064728;28;20474;-81
2021/08/18 00:36:05;;;;;;;3.97;2.65;;;;;;;23.72;50.77;101447.50;5065321;28;20125;-81
2021/08/18 00:38:31;;;;;;;3.00;2.22;;;;;;;23.38;51.05;101394.19;5042109;28;20078;-81
2021/08/18 00:40:56;;;;;;;2.22;2.03;;;;;;;23.64;51.06;101444.97;5064219;28;20047;-81
2021/08/18 00:43:22;;;;;;;3.67;2.60;;;;;;;23.55;50.92;101430.13;5065380;28;20055;-81
2021/08/18 00:45:49;;;;;;;3.53;2.72;;;;;;;23.64;51.20;101447.63;5058994;28;20482;-81
2021/08/18 00:48:15;;;;;;;3.13;2.55;;;;;;;23.67;50.97;101449.06;5062950;28;20040;-82
2021/08/18 00:50:40;;;;;;;3.15;2.47;;;;;;;23.66;50.89;101448.25;5052602;28;20793;-81
2021/08/18 00:53:06;;;;;;;3.95;2.63;;;;;;;23.65;50.86;101440.47;5064335;28;20049;-81
2021/08/18 00:55:31;;;;;;;2.60;2.15;;;;;;;23.64;51.17;101437.00;5063491;28;20067;-81
2021/08/18 00:57:57;;;;;;;3.13;2.53;;;;;;;23.29;51.07;101380.19;5058369;28;20032;-81
2021/08/18 01:00:26;;;;;;;3.75;2.40;;;;;;;23.65;51.10;101437.81;5056433;28;20103;-81
2021/08/18 01:02:52;;;;;;;2.90;2.40;;;;;;;23.60;51.23;101435.72;5053883;28;20055;-81
2021/08/18 01:05:21;;;;;;;3.45;2.20;;;;;;;23.50;50.97;101424.53;5059359;28;20119;-81
2021/08/18 01:07:48;;;;;;;3.17;2.60;;;;;;;23.60;51.10;101433.06;5059782;28;20024;-81
2021/08/18 01:10:17;;;;;;;3.85;2.60;;;;;;;23.46;51.06;101413.47;5060431;28;20460;-81
2021/08/18 01:12:42;;;;;;;3.78;2.63;;;;;;;23.60;51.43;101445.53;5062624;28;20060;-81
2021/08/18 01:15:11;;;;;;;3.65;2.72;;;;;;;23.58;50.92;101447.56;5063556;28;20035;-81
2021/08/18 01:17:42;;;;;;;3.22;2.53;;;;;;;23.60;50.96;101446.38;5058099;28;20039;-81
2021/08/18 01:20:10;;;;;;;4.03;2.40;;;;;;;23.56;51.20;101442.41;5052504;28;20041;-82
2021/08/18 01:22:35;;;;;;;2.92;2.58;;;;;;;23.39;51.27;101417.09;5060586;28;20044;-81
2021/08/18 01:25:03;;;;;;;2.90;2.40;;;;;;;23.41;51.09;101410.56;5062541;28;20037;-81
2021/08/18 01:27:30;;;;;;;2.95;2.40;;;;;;;23.54;51.14;101433.81;5064575;28;20119;-82
2021/08/18 01:29:56;;;;;;;3.83;2.60;;;;;;;23.48;50.98;101424.72;5063446;28;20032;-81
2021/08/18 01:32:21;;;;;;;3.38;2.60;;;;;;;23.54;51.17;101443.63;5049239;28;20178;-81
2021/08/18 01:34:47;;;;;;;3.08;2.40;;;;;;;23.55;51.20;101432.78;5065365;28;20033;-81
2021/08/18 01:37:12;;;;;;;3.85;2.50;;;;;;;23.51;51.24;101432.31;5066943;28;20490;-81
2021/08/18 01:39:38;;;;;;;4.10;2.75;;;;;;;23.42;51.23;101422.84;5061181;28;20763;-81
2021/08/18 01:42:04;;;;;;;3.85;2.83;;;;;;;23.51;51.19;101434.97;5060099;28;20045;-81
2021/08/18 01:44:32;;;;;;;3.25;2.50;;;;;;;23.45;51.19;101422.47;5054946;28;20489;-81
2021/08/18 01:46:57;;;;;;;3.55;2.75;;;;;;;23.38;51.42;101407.47;5050085;28;20552;-81
2021/08/18 01:49:23;;;;;;;3.85;2.35;;;;;;;23.45;51.19;101424.28;5044225;28;20048;-81
2021/08/18 01:51:48;;;;;;;3.42;2.33;;;;;;;23.44;51.24;101415.50;5064432;28;20036;-81
2021/08/18 01:54:14;;;;;;;3.65;2.60;;;;;;;23.46;51.19;101418.78;5062850;28;20032;-81
2021/08/18 01:56:40;;;;;;;3.08;2.38;;;;;;;23.19;51.20;101382.34;5059844;28;20435;-81
2021/08/18 01:59:05;;;;;;;3.38;2.47;;;;;;;23.41;51.32;101401.78;5054870;28;20588;-81
2021/08/18 02:01:31;;;;;;;3.80;2.47;;;;;;;23.45;51.37;101408.34;5056530;28;20057;-81
2021/08/18 02:03:57;;;;;;;3.65;2.38;;;;;;;23.48;51.22;101414.09;5037962;28;20044;-81
2021/08/18 02:06:23;;;;;;;3.63;2.45;;;;;;;23.46;51.34;101420.63;5065938;28;20063;-81
2021/08/18 02:08:48;;;;;;;3.85;2.45;;;;;;;23.48;51.29;101410.63;5050723;28;20032;-81
2021/08/18 02:11:14;;;;;;;3.85;2.78;;;;;;;23.44;51.17;101410.19;5061271;28;20426;-81
2021/08/18 02:13:39;;;;;;;2.95;2.35;;;;;;;23.45;51.38;101413.66;5029728;28;20047;-81
2021/08/18 02:16:06;;;;;;;3.05;2.28;;;;;;;23.46;51.07;101407.34;5054713;28;20045;-81
2021/08/18 02:18:32;;;;;;;3.45;2.78;;;;;;;23.44;51.23;101401.38;5063739;28;20072;-81
2021/08/18 02:20:57;;;;;;;3.13;2.38;;;;;;;23.34;51.18;101375.16;5062913;28;20402;-81
2021/08/18 02:23:23;;;;;;;3.38;2.30;;;;;;;23.42;51.42;101380.31;5063722;28;20037;-81
2021/08/18 02:25:49;;;;;;;3.42;2.65;;;;;;;23.32;51.46;101366.50;5064817;28;20097;-81
2021/08/18 02:28:15;;;;;;;3.15;2.45;;;;;;;23.33;51.63;101372.66;5063795;28;20047;-81
2021/08/18 02:30:41;;;;;;;4.35;2.40;;;;;;;23.41;51.46;101388.47;5064413;28;20406;-81
2021/08/18 02:33:08;;;;;;;3.50;2.47;;;;;;;23.41;51.54;101389.31;5068300;28;20032;-81
2021/08/18 02:35:33;;;;;;;4.18;2.78;;;;;;;23.39;51.29;101385.19;5063587;28;20033;-81
2021/08/18 02:38:00;;;;;;;3.65;2.72;;;;;;;23.14;51.57;101340.38;5066168;28;20491;-81
2021/08/18 02:40:26;;;;;;;3.10;2.30;;;;;;;23.33;51.75;101380.63;5058028;28;20049;-80
2021/08/18 02:42:55;;;;;;;3.05;2.38;;;;;;;23.28;51.42;101373.22;5070826;28;20934;-81
2021/08/18 02:45:22;;;;;;;3.10;2.60;;;;;;;23.37;51.25;101388.03;5067791;28;20128;-81
2021/08/18 02:47:48;;;;;;;3.10;2.53;;;;;;;23.37;51.37;101382.72;5067305;28;20107;-81
2021/08/18 02:50:16;;;;;;;3.97;2.60;;;;;;;23.31;51.60;101385.31;5067358;28;20043;-81
2021/08/18 02:52:43;;;;;;;4.78;3.15;;;;;;;23.32;51.39;101376.31;5072633;28;20045;-81
2021/08/18 02:55:09;;;;;;;4.07;2.90;;;;;;;23.12;51.61;101353.03;5040421;28;20536;-81
2021/08/18 02:57:35;;;;;;;4.78;2.85;;;;;;;23.37;51.67;101387.22;5060297;28;20132;-81
2021/08/18 03:00:00;;;;;;;5.38;2.88;;;;;;;23.31;51.65;101396.75;5062038;28;20136;-81
2021/08/18 03:02:26;;;;;;;4.30;2.90;;;;;;;23.33;51.60;101394.72;5057085;28;20218;-81
2021/08/18 03:04:52;;;;;;;3.90;2.70;;;;;;;23.33;51.47;101401.88;5063371;28;20028;-81
2021/08/18 03:07:18;;;;;;;3.08;2.42;;;;;;;23.35;51.67;101397.22;5061491;28;20032;-81
2021/08/18 03:09:43;;;;;;;4.85;3.00;;;;;;;23.35;51.50;101391.91;5066058;28;20041;-83
2021/08/18 03:12:09;;;;;;;3.55;2.78;;;;;;;23.33;51.54;101400.03;5060581;28;20045;-81
2021/08/18 03:14:35;;;;;;;3.15;2.53;;;;;;;23.32;51.53;101400.22;5068778;28;20037;-81
2021/08/18 03:17:01;;;;;;;3.95;2.63;;;;;;;23.31;51.53;101402.06;5064381;28;20054;-81
2021/08/18 03:19:26;;;;;;;4.15;2.80;;;;;;;23.20;51.51;101389.31;5057934;28;20037;-81
2021/08/18 03:21:52;;;;;;;3.67;2.75;;;;;;;23.31;51.61;101407.38;5039657;28;20082;-81
2021/08/18 03:24:17;;;;;;;3.70;2.78;;;;;;;23.30;51.73;101403.09;5045332;28;20052;-82
2021/08/18 03:26:43;;;;;;;4.05;3.10;;;;;;;23.21;51.34;101394.44;5065877;28;20079;-81
2021/08/18 03:29:09;;;;;;;4.53;2.95;;;;;;;23.31;51.63;101394.09;5067597;28;20028;-81
2021/08/18 03:31:34;;;;;;;3.65;2.63;;;;;;;23.30;51.73;101383.66;5061322;28;20037;-81
2021/08/18 03:34:01;;;;;;;3.55;2.33;;;;;;;23.30;51.52;101384.47;5066795;28;20025;-81
2021/08/18 03:36:27;;;;;;;4.38;3.17;;;;;;;23.25;51.53;101384.22;5059843;28;20037;-81
2021/08/18 03:38:53;;;;;;;4.47;2.78;;;;;;;23.26;51.74;101385.06;5058326;28;20055;-81
2021/08/18 03:41:19;;;;;;;3.63;2.40;;;;;;;23.10;51.86;101357.72;5057877;28;20033;-81
2021/08/18 03:43:45;;;;;;;2.92;2.53;;;;;;;23.16;51.45;101369.41;5064485;28;20040;-81
2021/08/18 03:46:10;;;;;;;3.40;2.50;;;;;;;23.28;51.40;101388.34;5058738;28;20043;-81
2021/08/18 03:48:36;;;;;;;3.72;2.65;;;;;;;23.25;51.42;101394.88;5067193;28;20063;-81
2021/08/18 03:51:02;;;;;;;3.80;2.75;;;;;;;23.25;51.53;101388.72;5062421;28;20048;-82
2021/08/18 03:53:28;;;;;;;3.63;2.80;;;;;;;23.15;51.80;101365.94;5072594;28;20040;-81
2021/08/18 03:55:54;;;;;;;4.40;2.80;;;;;;;22.93;51.66;101332.41;5067448;28;20035;-81
2021/08/18 03:58:19;;;;;;;3.67;2.65;;;;;;;23.26;51.68;101379.75;5050956;28;20041;-81
2021/08/18 04:00:45;;;;;;;4.03;2.90;;;;;;;23.25;51.75;101370.13;5063315;28;20067;-82
2021/08/18 04:03:10;;;;;;;3.75;2.60;;;;;;;23.23;51.54;101367.66;5067684;28;20036;-81
2021/08/18 04:05:36;;;;;;;4.15;3.03;;;;;;;22.97;51.62;101325.69;5050601;28;20047;-81
2021/08/18 04:08:02;;;;;;;5.15;2.85;;;;;;;23.25;51.83;101378.09;5047599;28;20048;-81
2021/08/18 04:10:28;;;;;;;3.90;2.72;;;;;;;23.21;51.76;101372.34;5044268;28;20055;-81
2021/08/18 04:12:59;;;;;;;4.13;2.70;;;;;;;23.24;51.73;101382.59;5057390;28;20475;-81
2021/08/18 04:15:27;;;;;;;3.92;2.65;;;;;;;23.19;51.54;101377.84;5060720;28;20089;-81
2021/08/18 04:17:53;;;;;;;4.63;2.95;;;;;;;23.21;51.47;101386.44;5055579;28;20032;-81
2021/08/18 04:20:19;;;;;;;3.63;2.78;;;;;;;23.17;51.88;101379.06;5060200;28;20102;-81
2021/08/18 04:22:46;;;;;;;4.22;2.63;;;;;;;22.94;51.43;101347.31;5066082;28;20462;-81
2021/08/18 04:25:16;;;;;;;4.53;2.90;;;;;;;23.27;51.52;101389.34;5067528;28;20028;-81
2021/08/18 04:27:43;;;;;;;4.20;2.60;;;;;;;23.17;51.70;101389.69;5059027;28;20045;-81
2021/08/18 04:30:10;;;;;;;4.40;2.75;;;;;;;23.19;51.54;101404.41;5062559;28;20033;-81
2021/08/18 04:32:36;;;;;;;4.35;2.85;;;;;;;23.15;51.61;101392.50;5063745;28;20549;-81
2021/08/18 04:35:03;;;;;;;3.53;2.80;;;;;;;23.18;51.63;101396.63;5051619;28;20047;-81
2021/08/18 04:37:28;;;;;;;4.35;3.08;;;;;;;23.20;51.50;101398.09;5058404;28;20116;-81
2021/08/18 04:39:54;;;;;;;4.70;3.17;;;;;;;23.15;51.53;101389.84;5056647;28;20025;-81
2021/08/18 04:42:19;;;;;;;4.53;3.10;;;;;;;23.15;51.67;101394.34;5061282;28;20039;-81
2021/08/18 04:44:45;;;;;;;3.85;2.78;;;;;;;23.10;51.61;101384.28;5062909;28;20802;-81
2021/08/18 04:47:10;;;;;;;4.78;2.83;;;;;;;23.19;51.73;101387.66;5054827;28;20269;-82
2021/08/18 04:49:36;;;;;;;4.50;3.00;;;;;;;23.20;51.61;101394.63;5055276;28;20040;-81
2021/08/18 04:52:02;;;;;;;4.55;3.22;;;;;;;23.09;51.58;101382.63;5066769;28;20040;-81
2021/08/18 04:54:27;;;;;;;4.00;2.90;;;;;;;23.08;51.67;101381.00;5066663;28;20686;-81
2021/08/18 04:56:53;;;;;;;5.03;3.15;;;;;;;23.09;51.64;101377.31;5065484;28;20094;-81
2021/08/18 04:59:18;;;;;;;4.22;2.95;;;;;;;23.05;51.73;101380.56;5063571;28;20039;-81
2021/08/18 05:01:44;;;;;;;3.88;2.88;;;;;;;23.16;51.72;101388.00;5062599;28;20075;-81
2021/08/18 05:04:09;;;;;;;4.78;2.88;;;;;;;22.99;51.83;101358.22;5061306;28;20043;-81
2021/08/18 05:06:35;;;;;;;4.25;3.08;;;;;;;23.17;51.55;101387.84;5063584;28;20036;-83
2021/08/18 05:09:01;;;;;;;3.90;2.80;;;;;;;23.09;51.73;101379.97;5062240;28;20402;-81
2021/08/18 05:11:26;;;;;;;4.70;3.22;;;;;;;23.17;51.67;101381.72;5056934;28;20078;-81
2021/08/18 05:13:52;;;;;;;4.85;3.17;;;;;;;23.13;51.81;101385.72;5055402;28;20028;-80
2021/08/18 05:16:17;;;;;;;3.78;2.83;;;;;;;23.09;51.77;101379.16;5060982;28;20402;-81
2021/08/18 05:18:43;;;;;;;4.55;3.15;;;;;;;22.97;51.89;101360.22;5060967;28;20033;-81
2021/08/18 05:21:08;;;;;;;5.22;2.78;;;;;;;23.13;51.60;101389.22;5062771;28;20043;-81
2021/08/18 05:23:34;;;;;;;4.65;3.13;;;;;;;23.13;51.62;101394.53;5060159;28;20152;-81
2021/08/18 05:26:00;;;;;;;3.63;2.90;;;;;;;23.03;51.56;101364.81;5066753;28;20053;-81
2021/08/18 05:28:25;;;;;;;5.35;3.15;;;;;;;23.07;51.85;101382.00;5036143;28;20106;-81
2021/08/18 05:30:51;;;;;;;4.03;2.85;;;;;;;23.01;51.75;101371.31;5058219;28;20037;-81
2021/08/18 05:33:16;;;;;;;4.43;3.08;;;;;;;23.07;51.88;101384.66;5062502;28;20039;-81
2021/08/18 05:35:42;;;;;;;4.53;3.20;;;;;;;23.13;51.68;101391.03;5049019;28;20549;-81
2021/08/18 05:38:07;;;;;;;5.20;3.50;;;;;;;23.10;52.01;101391.44;5061189;28;20401;-80
2021/08/18 05:40:33;;;;;;;4.45;2.78;;;;;;;23.09;51.57;101379.16;5057675;28;20382;-81
2021/08/18 05:42:59;;;;;;;4.45;3.00;;;;;;;23.03;51.82;101372.78;5063386;28;20041;-81
2021/08/18 05:45:24;;;;;;;6.30;3.22;;;;;;;23.13;51.81;101380.41;5058484;28;20049;-81
2021/08/18 05:47:50;;;;;;;4.90;3.47;;;;;;;23.10;51.76;101384.28;5060009;28;20523;-81
2021/08/18 05:50:15;;;;;;;4.65;3.17;;;;;;;23.13;51.58;101391.03;5040647;28;20048;-81
2021/08/18 05:52:41;;;;;;;4.47;2.85;;;;;;;23.13;51.78;101386.56;5075448;28;20044;-80
2021/08/18 05:55:07;;;;;;;4.07;2.75;;;;;;;23.15;51.74;101383.72;5030352;28;20044;-81
2021/08/18 05:57:34;;;;;;;4.97;2.92;;;;;;;23.11;51.77;101383.25;5055057;28;20036;-81
2021/08/18 05:59:59;;;;;;;4.72;2.90;;;;;;;23.11;51.82;101380.59;5044147;28;20038;-81
2021/08/18 06:02:25;;;;;;;5.45;3.40;;;;;;;23.10;52.06;101381.63;5065343;28;20048;-81
2021/08/18 06:04:50;;;;;;;4.45;3.20;;;;;;;23.11;51.75;101385.91;5058684;28;20398;-81
2021/08/18 06:07:16;;;;;;;5.22;3.28;;;;;;;23.04;51.74;101373.59;5064405;28;20679;-80
2021/08/18 06:09:42;;;;;;;4.82;3.25;;;;;;;23.09;51.81;101387.13;5059000;28;20048;-81
2021/08/18 06:12:08;;;;;;;4.90;3.30;;;;;;;22.94;51.99;101362.44;5057113;28;20037;-81
2021/08/18 06:14:34;;;;;;;4.40;2.88;;;;;;;23.09;52.06;101389.78;5034680;28;20980;-81
2021/08/18 06:16:59;;;;;;;5.35;2.80;;;;;;;22.94;51.77;101365.09;5070839;28;20044;-81
2021/08/18 06:19:25;;;;;;;4.43;3.10;;;;;;;23.09;51.94;101390.59;5054477;28;20087;-81
2021/08/18 06:21:51;;;;;;;4.50;3.03;;;;;;;23.10;51.98;101394.09;5056969;28;20037;-81
2021/08/18 06:24:28;;;;;;;4.78;3.30;;;;;;;23.04;51.99;101387.69;5066200;28;20152;-81
2021/08/18 06:26:56;;;;;;;4.43;2.85;;;;;;;23.10;51.96;101399.41;5054457;28;20090;-81
2021/08/18 06:29:22;;;;;;;6.05;3.03;;;;;;;23.04;51.96;101381.56;5061431;28;20048;-81
2021/08/18 06:31:48;;;;;;;4.57;3.10;;;;;;;23.05;51.89;101385.88;5063237;28;20089;-81
2021/08/18 06:34:14;;;;;;;5.68;3.10;;;;;;;23.02;51.97;101386.25;5067532;28;20036;-81
2021/08/18 06:36:40;;;;;;;5.47;3.38;;;;;;;23.08;51.73;101393.44;5057193;28;20037;-81
2021/08/18 06:39:06;;;;;;;5.78;3.20;;;;;;;23.02;51.76;101387.06;5065573;28;20040;-81
2021/08/18 06:41:32;;;;;;;3.90;2.90;;;;;;;23.10;51.79;101404.72;5064412;28;20048;-81
2021/08/18 06:43:57;;;;;;;4.75;3.10;;;;;;;23.11;51.85;101406.34;5048477;28;20036;-81
2021/08/18 06:46:23;;;;;;;5.43;3.60;;;;;;;23.10;51.76;101402.06;5062187;28;20040;-81
2021/08/18 06:48:48;;;;;;;5.22;3.42;;;;;;;23.11;51.93;101401.03;5065039;28;20036;-82
2021/08/18 06:51:16;;;;;;;6.07;3.15;;;;;;;23.09;51.83;101405.72;5063804;28;20395;-81
2021/08/18 06:53:43;;;;;;;4.53;2.97;;;;;;;22.83;51.88;101374.38;5071255;28;20044;-78
2021/08/18 06:56:09;;;;;;;4.57;2.83;;;;;;;23.08;52.01;101406.72;5060335;28;20116;-78
2021/08/18 06:58:36;;;;;;;13.77;3.53;;;;;;;23.10;51.76;101402.88;5061597;28;20033;-78
2021/08/18 07:01:01;;;;;;;5.03;3.17;;;;;;;23.13;51.88;101404.31;5057714;28;20409;-76
2021/08/18 07:03:27;;;;;;;3.50;2.70;;;;;;;23.05;51.77;101394.66;5061023;28;20052;-79
2021/08/18 07:05:52;;;;;;;4.40;3.20;;;;;;;23.11;52.06;101409.84;5060092;28;20500;-76
2021/08/18 07:08:18;;;;;;;4.97;2.92;;;;;;;23.12;51.92;101410.66;5063823;28;20040;-77
2021/08/18 07:10:43;;;;;;;4.63;3.10;;;;;;;23.13;51.59;101413.13;5058507;28;20033;-76
2021/08/18 07:13:09;;;;;;;4.80;2.83;;;;;;;23.02;51.58;101387.06;5042918;28;20067;-77
2021/08/18 07:15:34;;;;;;;4.10;2.80;;;;;;;23.15;51.82;101411.09;5058717;28;20041;-77
2021/08/18 07:18:01;;;;;;;4.65;2.90;;;;;;;23.20;51.70;101408.72;5059608;28;20040;-77
2021/08/18 07:20:26;;;;;;;5.07;3.25;;;;;;;23.12;51.75;101398.19;5044768;28;20036;-77
2021/08/18 07:22:52;;;;;;;5.20;2.72;;;;;;;23.20;51.61;101407.91;5059609;28;20044;-77
2021/08/18 07:25:18;;;;;;;4.25;2.88;;;;;;;23.19;51.61;101411.56;5063814;28;20052;-77
2021/08/18 07:27:43;;;;;;;4.60;3.00;;;;;;;23.10;51.70;101397.56;5061071;28;20044;-76
2021/08/18 07:30:09;;;;;;;6.13;3.25;;;;;;;23.20;51.55;101415.88;5059982;28;20083;-76
2021/08/18 07:32:37;;;;;;;6.07;2.95;;;;;;;23.15;51.73;101405.78;5058737;28;20036;-77
2021/08/18 07:35:03;;;;;;;4.50;3.00;;;;;;;23.16;51.52;101409.25;5060708;28;20037;-76
2021/08/18 07:37:30;;;;;;;5.97;3.30;;;;;;;23.20;51.71;101413.22;5060935;28;20047;-76
2021/08/18 07:39:56;;;;;;;5.18;3.05;;;;;;;23.23;51.36;101407.53;5042494;28;20052;-76
2021/08/18 07:42:22;;;;;;;5.57;3.00;;;;;;;23.03;51.59;101379.91;5063748;28;20444;-76
2021/08/18 07:44:47;;;;;;;4.80;3.30;;;;;;;23.20;51.41;101408.72;5059220;28;20036;-75
2021/08/18 07:47:13;;;;;;;4.38;3.25;;;;;;;23.22;51.42;101405.88;5061057;28;20044;-74
2021/08/18 07:49:38;;;;;;;5.32;3.13;;;;;;;23.22;51.63;101400.56;5060092;28;20475;-77
2021/08/18 07:52:05;;;;;;;4.22;2.97;;;;;;;23.23;51.75;101404.03;5059571;28;20051;-77
2021/08/18 07:54:30;;;;;;;6.07;3.25;;;;;;;23.27;51.30;101400.81;5059924;28;20478;-74
2021/08/18 07:56:56;;;;;;;5.55;3.28;;;;;;;23.25;51.41;101405.50;5062496;28;20068;-77
2021/08/18 07:59:21;;;;;;;4.50;2.92;;;;;;;23.25;51.39;101400.19;5060726;28;20042;-76
2021/08/18 08:01:47;;;;;;;5.50;3.50;;;;;;;23.28;51.47;101401.63;5061426;28;20048;-76
2021/08/18 08:04:12;;;;;;;5.57;2.85;;;;;;;23.06;51.53;101356.44;5061594;28;20060;-76
2021/08/18 08:06:38;;;;;;;5.40;3.33;;;;;;;23.21;51.54;101382.97;5047338;28;20045;-76
2021/08/18 08:09:04;;;;;;;4.57;3.10;;;;;;;23.09;51.34;101366.69;5063058;28;20212;-76
2021/08/18 08:11:29;;;;;;;4.53;3.38;;;;;;;23.30;51.33;101395.09;5065379;28;20040;-76
2021/08/18 08:13:55;;;;;;;5.85;3.25;;;;;;;23.23;51.26;101391.56;5065680;28;20044;-76
2021/08/18 08:16:20;;;;;;;3.75;3.08;;;;;;;23.29;51.44;101400.63;5063315;28;20490;-77
2021/08/18 08:18:46;;;;;;;5.57;2.80;;;;;;;23.31;51.21;101403.91;5065491;28;20044;-76
2021/08/18 08:21:11;;;;;;;4.53;2.83;;;;;;;23.29;51.19;101406.75;5064407;28;20110;-75
2021/08/18 08:23:37;;;;;;;4.80;3.10;;;;;;;23.24;51.50;101403.84;5061446;28;20040;-77
2021/08/18 08:26:03;;;;;;;4.45;3.30;;;;;;;23.28;51.32;101409.59;5063999;28;20037;-75
2021/08/18 08:28:28;;;;;;;4.13;2.75;;;;;;;23.28;51.37;101409.59;5058181;28;20441;-75
2021/08/18 08:30:54;;;;;;;4.72;3.25;;;;;;;23.34;51.05;101409.69;5057805;28;20045;-75
2021/08/18 08:33:19;;;;;;;4.68;3.15;;;;;;;23.32;51.49;101403.72;5059268;28;20103;-74
2021/08/18 08:35:45;;;;;;;4.75;2.85;;;;;;;23.32;51.27;101410.88;5056086;28;20067;-75
2021/08/18 08:38:10;;;;;;;5.53;3.42;;;;;;;23.25;51.34;101394.88;5057315;28;20382;-75
2021/08/18 08:40:39;;;;;;;5.60;3.13;;;;;;;23.33;51.08;101410.66;5064502;28;20047;-75
2021/08/18 08:43:06;;;;;;;4.13;2.70;;;;;;;23.35;51.13;101408.69;5066453;28;20327;-75
2021/08/18 08:45:32;;;;;;;4.85;3.10;;;;;;;23.32;51.18;101401.06;5061625;28;20239;-75
2021/08/18 08:47:58;;;;;;;4.47;2.85;;;;;;;23.26;51.07;101401.81;5059738;28;20040;-75
2021/08/18 08:50:24;;;;;;;7.05;2.88;;;;;;;23.25;51.23;101383.41;5060023;28;20064;-75
2021/08/18 08:52:49;;;;;;;4.68;2.78;;;;;;;23.35;51.13;101406.03;5061730;28;20395;-75
2021/08/18 08:55:15;;;;;;;4.63;2.90;;;;;;;23.33;51.24;101400.03;5060260;28;20067;-75
2021/08/18 08:57:51;;;;;;;4.10;2.70;;;;;;;23.35;51.19;101407.84;5060017;28;20374;-75
2021/08/18 09:00:18;;;;;;;4.97;3.13;;;;;;;23.34;50.94;101403.53;5057769;28;20056;-75
2021/08/18 09:02:44;;;;;;;5.45;2.90;;;;;;;23.31;51.18;101401.25;5054038;28;20033;-75
2021/08/18 09:05:11;;;;;;;5.45;2.75;;;;;;;23.18;51.08;101383.34;5061297;28;20048;-76
2021/08/18 09:07:37;;;;;;;3.97;3.03;;;;;;;23.34;51.02;101409.69;5057291;28;20074;-75
2021/08/18 09:10:06;;;;;;;4.35;3.30;;;;;;;23.29;51.00;101392.66;5055969;28;20483;-75
2021/08/18 09:12:37;;;;;;;4.15;2.83;;;;;;;23.36;51.15;101402.34;5059515;28;20037;-75
2021/08/18 09:15:20;;;;;;;5.03;3.17;;;;;;;23.18;51.17;101380.69;5059994;28;20048;-75
2021/08/18 09:17:48;;;;;;;3.72;2.75;;;;;;;23.34;51.09;101400.88;5056884;28;20471;-75
2021/08/18 09:20:17;;;;;;;4.90;3.20;;;;;;;23.40;51.04;101405.44;5054395;28;20067;-75
2021/08/18 09:22:48;;;;;;;5.53;2.83;;;;;;;23.37;51.28;101401.34;5055680;28;20044;-76
2021/08/18 09:25:19;;;;;;;4.68;2.80;;;;;;;23.37;51.43;101404.00;5060372;28;20111;-75
2021/08/18 09:27:49;;;;;;;4.72;3.40;;;;;;;23.39;51.25;101407.28;5064212;28;20033;-76
2021/08/18 09:30:20;;;;;;;5.43;3.30;;;;;;;23.36;51.20;101394.38;5066689;28;20473;-75
2021/08/18 09:32:46;;;;;;;6.15;3.00;;;;;;;23.40;51.18;101395.63;5064256;28;20570;-75
2021/08/18 09:35:14;;;;;;;5.03;3.17;;;;;;;23.40;50.89;101389.50;5066488;28;20037;-75
2021/08/18 09:38:15;;;;;;;5.32;3.20;;;;;;;23.38;51.25;101391.53;5057656;28;20035;-75
2021/08/18 09:40:46;;;;;;;5.28;2.88;;;;;;;23.30;51.09;101379.16;4996197;28;20046;-75
2021/08/18 09:43:26;;;;;;;3.17;2.53;;;;;;;23.39;51.09;101391.34;5047331;28;20056;-75
2021/08/18 09:45:56;;;;;;;3.72;2.95;;;;;;;23.38;51.33;101388.88;5064299;28;20036;-76
2021/08/18 09:48:24;;;;;;;6.55;3.15;;;;;;;23.37;51.18;101388.03;5062613;28;20378;-76
2021/08/18 09:50:51;;;;;;;6.28;3.20;;;;;;;23.39;51.17;101386.03;5063370;28;20373;-74
2021/08/18 09:53:26;;;;;;;3.90;2.70;;;;;;;23.41;51.25;101380.50;5060837;28;20036;-75
2021/08/18 09:56:03;;;;;;;3.90;3.15;;;;;;;23.31;51.48;101358.72;5070135;28;20021;-75
2021/08/18 09:58:33;;;;;;;3.67;2.80;;;;;;;23.40;51.43;101376.22;5056675;28;20042;-75
2021/08/18 10:01:10;;;;;;;3.88;2.85;;;;;;;23.37;51.29;101368.63;5061942;28;20056;-75
2021/08/18 10:03:38;;;;;;;3.92;3.00;;;;;;;23.38;51.43;101384.38;5034933;28;20119;-75
2021/08/18 10:06:05;;;;;;;6.10;3.10;;;;;;;23.39;51.63;101375.38;5062648;28;20033;-75
2021/08/18 10:08:32;;;;;;;4.95;3.10;;;;;;;23.26;51.58;101353.16;5062752;28;20038;-74
2021/08/18 10:10:58;;;;;;;5.28;3.10;;;;;;;23.41;51.39;101378.69;5063562;28;20041;-75
2021/08/18 10:13:24;;;;;;;5.28;3.13;;;;;;;23.34;51.52;101374.28;5048575;28;20056;-74
2021/08/18 10:15:50;;;;;;;4.95;3.22;;;;;;;23.36;51.35;101375.78;5065223;28;20033;-75
2021/08/18 10:18:46;;;;;;;5.32;3.05;;;;;;;23.42;51.60;101392.78;5063554;28;20069;-76
2021/08/18 10:21:25;;;;;;;4.63;3.10;;;;;;;23.45;51.43;101387.09;5065600;28;20072;-75
2021/08/18 10:23:57;;;;;;;4.03;3.00;;;;;;;23.44;51.27;101383.59;5062332;28;20378;-75
2021/08/18 10:26:35;;;;;;;4.25;2.97;;;;;;;23.44;51.28;101382.78;5071615;28;20373;-77
2021/08/18 10:29:26;;;;;;;4.70;3.13;;;;;;;23.44;51.47;101380.13;5061517;28;20033;-75
2021/08/18 10:31:52;;;;;;;4.35;2.95;;;;;;;23.45;51.13;101381.78;5069328;28;20245;-75
2021/08/18 10:34:23;;;;;;;4.15;3.13;;;;;;;23.43;51.38;101376.66;5069443;28;20085;-76
2021/08/18 10:36:51;;;;;;;4.95;3.33;;;;;;;23.43;51.32;101375.81;5066832;28;20043;-75
2021/08/18 10:39:26;;;;;;;4.13;3.40;;;;;;;23.48;51.26;101378.72;5058699;28;20028;-75
2021/08/18 10:42:04;;;;;;;5.80;3.65;;;;;;;23.28;51.41;101353.81;5064645;28;20041;-76
2021/08/18 10:44:34;;;;;;;4.68;3.20;;;;;;;23.47;51.15;101372.59;5043205;28;20381;-75
2021/08/18 10:47:13;;;;;;;4.10;3.33;;;;;;;23.43;51.14;101371.31;5063600;28;20044;-75
2021/08/18 10:49:38;;;;;;;5.05;3.20;;;;;;;23.47;51.23;101369.09;5059987;28;20044;-75
2021/08/18 10:52:04;;;;;;;4.50;3.25;;;;;;;23.43;51.51;101371.31;5045072;28;20126;-75
2021/08/18 10:54:30;;;;;;;4.40;3.20;;;;;;;23.47;51.04;101367.28;5062094;28;20121;-76
2021/08/18 10:57:00;;;;;;;4.18;3.42;;;;;;;23.46;51.46;101367.47;5059011;28;20436;-76
2021/08/18 10:59:35;;;;;;;4.63;3.22;;;;;;;23.45;51.50;101371.13;5072977;28;20178;-76
2021/08/18 11:02:01;;;;;;;5.55;3.65;;;;;;;23.34;51.37;101361.00;5058985;28;20067;-75
2021/08/18 11:04:46;;;;;;;4.13;3.38;;;;;;;23.43;51.44;101362.53;5065799;28;20500;-75
2021/08/18 11:07:13;;;;;;;6.97;3.40;;;;;;;23.45;51.33;101369.31;5068041;28;20044;-76
2021/08/18 11:09:50;;;;;;;6.45;4.18;;;;;;;23.45;51.21;101369.31;5068688;28;20127;-75
2021/08/18 11:12:41;;;;;;;4.43;3.50;;;;;;;23.46;51.24;101365.63;5059999;28;20488;-76
2021/08/18 11:15:18;;;;;;;4.43;3.35;;;;;;;23.43;51.40;101366.00;5062116;28;20036;-75
2021/08/18 11:17:50;;;;;;;5.60;3.80;;;;;;;23.46;51.08;101365.63;5060365;28;20033;-75
2021/08/18 11:20:28;;;;;;;5.38;3.45;;;;;;;23.44;51.23;101370.31;5059668;28;20028;-75
2021/08/18 11:23:08;;;;;;;7.10;3.70;;;;;;;23.44;51.40;101366.84;5059826;28;20390;-75
2021/08/18 11:25:44;;;;;;;4.72;3.50;;;;;;;23.42;51.29;101352.91;5061924;28;20486;-75